createdAt,value
2017-08-21T00:01:54.822Z,2.07
2017-08-21T00:04:22.379Z,3.20
2017-08-21T00:06:49.975Z,3.03
2017-08-21T00:09:18.305Z,3.07
2017-08-21T00:11:45.867Z,4.07
2017-08-21T00:14:13.452Z,2.80
2017-08-21T00:16:41.039Z,3.93
2017-08-21T00:19:08.744Z,4.50
2017-08-21T00:21:36.315Z,4.10
2017-08-21T00:24:03.888Z,4.10
2017-08-21T00:26:31.479Z,4.00
2017-08-21T00:28:59.055Z,3.50
2017-08-21T00:31:26.666Z,4.53
2017-08-21T00:33:55.020Z,3.53
2017-08-21T00:36:22.611Z,3.83
2017-08-21T00:38:50.983Z,3.80
2017-08-21T00:41:18.549Z,4.03
2017-08-21T00:43:46.879Z,3.50
2017-08-21T00:46:14.479Z,3.97
2017-08-21T00:48:42.080Z,3.97
2017-08-21T00:51:09.647Z,3.60
2017-08-21T00:53:37.215Z,3.47
2017-08-21T00:56:04.819Z,3.30
2017-08-21T00:58:33.152Z,4.00
2017-08-21T01:01:00.716Z,3.57
2017-08-21T01:03:28.349Z,4.10
2017-08-21T01:05:55.936Z,3.37
2017-08-21T01:08:23.608Z,3.70
2017-08-21T01:10:51.175Z,3.80
2017-08-21T01:13:18.744Z,3.80
2017-08-21T01:15:46.490Z,3.10
2017-08-21T01:18:14.046Z,4.03
2017-08-21T01:20:41.644Z,3.97
2017-08-21T01:23:10.047Z,3.40
2017-08-21T01:25:37.615Z,3.03
2017-08-21T01:28:05.295Z,3.40
2017-08-21T01:30:32.926Z,3.10
2017-08-21T01:33:00.543Z,3.30
2017-08-21T01:35:28.894Z,2.87
2017-08-21T01:37:56.467Z,3.17
2017-08-21T01:40:24.069Z,3.10
2017-08-21T01:42:51.640Z,2.73
2017-08-21T01:45:19.198Z,2.80
2017-08-21T01:47:46.798Z,3.23
2017-08-21T01:50:14.400Z,2.87
2017-08-21T01:52:42.007Z,3.20
2017-08-21T01:55:09.579Z,3.23
2017-08-21T01:57:37.176Z,3.20
2017-08-21T02:00:04.763Z,2.83
2017-08-21T02:02:32.327Z,3.43
2017-08-21T02:04:59.935Z,2.90
2017-08-21T02:07:28.313Z,2.80
2017-08-21T02:09:56.647Z,3.10
2017-08-21T02:12:24.199Z,2.90
2017-08-21T02:14:51.788Z,3.70
2017-08-21T02:17:19.359Z,2.97
2017-08-21T02:19:47.720Z,3.53
2017-08-21T02:22:15.279Z,3.20
2017-08-21T02:24:42.860Z,3.50
2017-08-21T02:27:10.467Z,3.03
2017-08-21T02:29:38.042Z,3.60
2017-08-21T02:32:05.607Z,4.20
2017-08-21T02:34:33.200Z,3.50
2017-08-21T02:37:01.544Z,3.97
2017-08-21T02:39:29.139Z,4.00
2017-08-21T02:41:56.704Z,3.77
2017-08-21T02:44:24.275Z,4.23
2017-08-21T02:46:51.856Z,3.97
2017-08-21T02:49:19.572Z,3.30
2017-08-21T02:51:47.167Z,3.07
2017-08-21T02:54:14.880Z,2.70
2017-08-21T02:56:43.252Z,3.00
2017-08-21T02:59:11.608Z,2.97
2017-08-21T03:01:39.211Z,2.80
2017-08-21T03:04:06.887Z,3.20
2017-08-21T03:06:34.455Z,2.70
2017-08-21T03:09:02.020Z,2.90
2017-08-21T03:11:29.648Z,4.10
2017-08-21T03:13:57.212Z,3.60
2017-08-21T03:16:24.819Z,3.40
2017-08-21T03:18:52.519Z,3.33
2017-08-21T03:21:20.096Z,3.53
2017-08-21T03:23:53.226Z,3.23
2017-08-21T03:26:20.855Z,3.30
2017-08-21T03:28:48.429Z,3.60
2017-08-21T03:31:16.018Z,3.40
2017-08-21T03:33:43.583Z,2.77
2017-08-21T03:36:11.913Z,3.60
2017-08-21T03:38:39.520Z,3.60
2017-08-21T03:41:07.844Z,2.60
2017-08-21T03:43:35.427Z,2.27
2017-08-21T03:46:03.018Z,2.23
2017-08-21T03:48:30.571Z,3.20
2017-08-21T03:50:58.975Z,2.13
2017-08-21T03:53:26.544Z,2.60
2017-08-21T03:55:54.139Z,3.23
2017-08-21T03:58:21.765Z,2.60
2017-08-21T04:00:49.443Z,2.57
2017-08-21T04:03:17.044Z,2.63
2017-08-21T04:05:44.745Z,3.07
2017-08-21T04:08:12.314Z,2.40
2017-08-21T04:10:39.905Z,2.87
2017-08-21T04:13:07.485Z,3.00
2017-08-21T04:15:35.072Z,2.70
2017-08-21T04:18:02.763Z,3.63
2017-08-21T04:20:30.360Z,3.10
2017-08-21T04:22:58.732Z,3.10
2017-08-21T04:25:26.381Z,2.60
2017-08-21T04:27:54.011Z,3.10
2017-08-21T04:30:21.610Z,2.80
2017-08-21T04:32:49.191Z,2.60
2017-08-21T04:35:17.551Z,2.60
2017-08-21T04:37:45.880Z,3.00
2017-08-21T04:40:13.439Z,4.20
2017-08-21T04:42:41.023Z,2.80
2017-08-21T04:45:08.587Z,2.90
2017-08-21T04:47:36.211Z,2.97
2017-08-21T04:50:03.787Z,2.50
2017-08-21T04:52:31.380Z,3.10
2017-08-21T04:54:59.740Z,2.80
2017-08-21T04:57:27.299Z,2.83
2017-08-21T04:59:54.879Z,3.40
2017-08-21T05:02:23.231Z,3.33
2017-08-21T05:04:51.687Z,3.53
2017-08-21T05:07:19.341Z,2.60
2017-08-21T05:09:46.952Z,2.50
2017-08-21T05:12:15.408Z,2.77
2017-08-21T05:14:42.968Z,2.93
2017-08-21T05:17:10.573Z,2.70
2017-08-21T05:19:38.143Z,4.97
2017-08-21T05:22:05.744Z,4.30
2017-08-21T05:24:33.592Z,5.03
2017-08-21T05:27:02.079Z,5.60
2017-08-21T05:29:29.683Z,4.37
2017-08-21T05:31:57.263Z,4.27
2017-08-21T05:34:24.879Z,3.10
2017-08-21T05:36:52.431Z,2.80
2017-08-21T05:39:20.031Z,2.80
2017-08-21T05:41:47.596Z,3.33
2017-08-21T05:44:15.164Z,3.23
2017-08-21T05:46:42.773Z,3.13
2017-08-21T05:49:10.351Z,2.93
2017-08-21T05:51:37.941Z,2.43
2017-08-21T05:54:05.546Z,3.03
2017-08-21T05:56:33.103Z,3.27
2017-08-21T05:59:00.711Z,3.10
2017-08-21T06:01:28.281Z,3.20
2017-08-21T06:03:55.834Z,2.50
2017-08-21T06:06:23.416Z,2.57
2017-08-21T06:08:50.979Z,3.27
2017-08-21T06:11:18.590Z,3.00
2017-08-21T06:13:46.159Z,2.73
2017-08-21T06:16:13.744Z,3.33
2017-08-21T06:18:41.370Z,3.13
2017-08-21T06:21:08.932Z,3.13
2017-08-21T06:23:36.523Z,3.57
2017-08-21T06:26:04.119Z,3.33
2017-08-21T06:28:32.480Z,3.17
2017-08-21T06:31:00.088Z,3.00
2017-08-21T06:33:27.658Z,2.93
2017-08-21T06:35:55.216Z,2.93
2017-08-21T06:38:22.836Z,3.60
2017-08-21T06:40:51.203Z,2.97
2017-08-21T06:43:19.572Z,3.17
2017-08-21T06:45:47.151Z,4.07
2017-08-21T06:48:15.515Z,3.70
2017-08-21T06:50:43.847Z,3.00
2017-08-21T06:53:12.227Z,3.07
2017-08-21T06:56:28.266Z,3.10
2017-08-21T06:58:55.883Z,3.30
2017-08-21T07:01:23.470Z,3.37
2017-08-21T07:03:51.040Z,3.20
2017-08-21T07:06:19.475Z,3.40
2017-08-21T07:08:47.151Z,3.23
2017-08-21T07:11:14.792Z,3.17
2017-08-21T07:13:56.299Z,4.10
2017-08-21T07:16:23.892Z,3.70
2017-08-21T07:18:52.225Z,3.67
2017-08-21T07:21:19.789Z,3.37
2017-08-21T07:23:47.399Z,4.47
2017-08-21T07:26:14.964Z,3.30
2017-08-21T07:28:42.555Z,3.90
2017-08-21T07:31:10.115Z,3.63
2017-08-21T07:33:37.774Z,4.20
2017-08-21T07:36:05.351Z,3.93
2017-08-21T07:38:32.987Z,3.73
2017-08-21T07:41:00.558Z,3.50
2017-08-21T07:43:28.165Z,3.37
2017-08-21T07:45:55.802Z,3.30
2017-08-21T07:48:24.167Z,3.20
2017-08-21T07:50:51.911Z,3.30
2017-08-21T07:53:19.663Z,3.67
2017-08-21T07:55:47.264Z,3.07
2017-08-21T07:58:15.611Z,3.00
2017-08-21T08:00:43.219Z,3.67
2017-08-21T08:03:10.797Z,3.43
2017-08-21T08:05:38.427Z,4.20
2017-08-21T08:08:06.879Z,3.30
2017-08-21T08:10:34.487Z,4.37
2017-08-21T08:13:02.055Z,4.20
2017-08-21T08:15:29.941Z,3.90
2017-08-21T08:17:57.719Z,3.80
2017-08-21T08:20:25.287Z,3.90
2017-08-21T08:22:52.915Z,4.77
2017-08-21T08:25:20.479Z,5.20
2017-08-21T08:27:48.055Z,5.57
2017-08-21T08:30:15.759Z,5.57
2017-08-21T08:32:43.339Z,5.70
2017-08-21T08:35:10.907Z,5.07
2017-08-21T08:37:38.601Z,3.90
2017-08-21T08:40:06.175Z,5.17
2017-08-21T08:42:33.749Z,4.80
2017-08-21T08:45:01.351Z,4.23
2017-08-21T08:47:28.928Z,4.60
2017-08-21T08:49:56.540Z,4.00
2017-08-21T08:52:24.214Z,4.30
2017-08-21T08:54:51.818Z,5.17
2017-08-21T08:57:19.428Z,4.20
2017-08-21T08:59:46.988Z,3.53
2017-08-21T09:02:14.592Z,2.90
2017-08-21T09:04:42.163Z,3.40
2017-08-21T09:07:10.509Z,4.30
2017-08-21T09:09:38.127Z,2.80
2017-08-21T09:12:05.708Z,3.30
2017-08-21T09:14:33.332Z,3.23
2017-08-21T09:17:01.675Z,3.33
2017-08-21T09:19:29.259Z,3.47
2017-08-21T09:21:56.876Z,2.80
2017-08-21T09:24:24.471Z,4.63
2017-08-21T09:26:52.916Z,3.70
2017-08-21T09:29:20.510Z,2.90
2017-08-21T09:31:48.871Z,3.03
2017-08-21T09:34:16.516Z,2.80
2017-08-21T09:36:44.108Z,3.40
2017-08-21T09:39:12.563Z,3.40
2017-08-21T09:41:40.144Z,2.60
2017-08-21T09:44:08.531Z,2.40
2017-08-21T09:46:36.871Z,3.73
2017-08-21T09:49:04.439Z,4.90
2017-08-21T09:51:32.048Z,2.57
2017-08-21T09:53:59.641Z,2.83
2017-08-21T09:56:27.225Z,2.33
2017-08-21T09:58:55.598Z,2.63
2017-08-21T10:01:23.172Z,2.40
2017-08-21T10:03:51.554Z,2.33
2017-08-21T10:06:19.923Z,2.87
2017-08-21T10:08:47.485Z,2.70
2017-08-21T10:11:15.852Z,2.37
2017-08-21T10:13:44.212Z,2.10
2017-08-21T10:16:11.811Z,2.50
2017-08-21T10:18:39.400Z,2.17
2017-08-21T10:21:07.018Z,2.30
2017-08-21T10:23:35.410Z,2.50
2017-08-21T10:26:15.298Z,2.33
2017-08-21T10:28:42.904Z,2.07
2017-08-21T10:31:11.238Z,2.00
2017-08-21T10:33:38.808Z,2.23
2017-08-21T10:36:06.420Z,2.10
2017-08-21T10:38:34.031Z,2.20
2017-08-21T10:41:01.595Z,2.63
2017-08-21T10:43:29.167Z,2.50
2017-08-21T10:45:57.527Z,1.93
2017-08-21T10:48:25.091Z,1.77
2017-08-21T10:50:52.706Z,2.20
2017-08-21T10:53:20.287Z,1.60
2017-08-21T10:55:47.869Z,3.87
2017-08-21T10:58:15.470Z,2.80
2017-08-21T11:00:43.041Z,2.37
2017-08-21T11:03:10.710Z,2.70
2017-08-21T11:05:38.281Z,2.27
2017-08-21T11:08:05.845Z,1.90
2017-08-21T11:10:33.459Z,1.87
2017-08-21T11:13:01.027Z,1.93
2017-08-21T11:15:28.631Z,2.17
2017-08-21T11:17:56.203Z,3.10
2017-08-21T11:20:24.531Z,4.07
2017-08-21T11:22:52.295Z,2.50
2017-08-21T11:25:19.931Z,2.27
2017-08-21T11:27:47.535Z,2.80
2017-08-21T11:30:15.103Z,2.50
2017-08-21T11:32:42.663Z,2.27
2017-08-21T11:35:10.372Z,2.20
2017-08-21T11:37:37.927Z,2.00
2017-08-21T11:40:05.525Z,1.80
2017-08-21T11:42:33.082Z,2.07
2017-08-21T11:45:00.642Z,2.00
2017-08-21T11:47:28.243Z,1.97
2017-08-21T11:49:56.567Z,2.20
2017-08-21T11:52:24.159Z,2.30
2017-08-21T11:54:51.756Z,3.13
2017-08-21T11:57:19.372Z,3.00
2017-08-21T11:59:46.935Z,3.20
2017-08-21T12:02:14.674Z,2.23
2017-08-21T12:04:42.291Z,2.53
2017-08-21T12:07:09.864Z,2.33
2017-08-21T12:09:37.424Z,2.40
2017-08-21T12:12:05.135Z,2.83
2017-08-21T12:14:32.731Z,2.50
2017-08-21T12:17:00.298Z,2.03
2017-08-21T12:19:27.856Z,3.10
2017-08-21T12:21:55.543Z,2.00
2017-08-21T12:24:23.115Z,2.90
2017-08-21T12:26:50.688Z,2.20
2017-08-21T12:29:18.316Z,2.43
2017-08-21T12:31:45.879Z,2.57
2017-08-21T12:34:13.491Z,2.07
2017-08-21T12:36:41.061Z,2.37
2017-08-21T12:39:08.653Z,2.23
2017-08-21T12:41:36.223Z,1.90
2017-08-21T12:44:03.787Z,2.30
2017-08-21T12:46:31.383Z,1.87
2017-08-21T12:48:58.955Z,2.50
2017-08-21T12:51:26.591Z,2.53
2017-08-21T12:53:55.080Z,2.87
2017-08-21T12:56:22.660Z,2.67
2017-08-21T12:58:50.253Z,2.33
2017-08-21T13:01:17.815Z,2.40
2017-08-21T13:03:45.369Z,2.03
2017-08-21T13:06:12.961Z,2.40
2017-08-21T13:08:41.294Z,3.00
2017-08-21T13:11:08.859Z,3.40
2017-08-21T13:13:36.455Z,2.73
2017-08-21T13:16:04.814Z,2.37
2017-08-21T13:18:32.428Z,2.77
2017-08-21T13:21:00.024Z,2.40
2017-08-21T13:23:27.580Z,2.40
2017-08-21T13:25:55.180Z,2.20
2017-08-21T13:28:22.752Z,2.00
2017-08-21T13:30:50.447Z,2.97
2017-08-21T13:33:18.012Z,2.20
2017-08-21T13:35:45.567Z,2.23
2017-08-21T13:38:13.147Z,2.37
2017-08-21T13:40:40.720Z,2.30
2017-08-21T13:43:09.077Z,2.10
2017-08-21T13:45:36.665Z,1.93
2017-08-21T13:48:04.323Z,2.10
2017-08-21T13:50:31.919Z,2.30
2017-08-21T13:52:59.512Z,2.00
2017-08-21T13:55:27.117Z,5.63
2017-08-21T13:57:54.745Z,1.83
2017-08-21T14:00:22.314Z,1.80
2017-08-21T14:02:49.900Z,1.80
2017-08-21T14:05:17.463Z,2.00
2017-08-21T14:07:45.074Z,2.53
2017-08-21T14:10:12.633Z,2.33
2017-08-21T14:12:40.191Z,2.10
2017-08-21T14:15:08.573Z,1.60
2017-08-21T14:17:36.911Z,2.17
2017-08-21T14:20:04.579Z,2.20
2017-08-21T14:22:32.180Z,1.97
2017-08-21T14:25:00.550Z,2.07
2017-08-21T14:27:28.147Z,2.20
2017-08-21T14:29:55.718Z,2.20
2017-08-21T14:32:23.289Z,2.03
2017-08-21T14:34:50.987Z,1.53
2017-08-21T14:37:18.580Z,2.30
2017-08-21T14:39:46.184Z,2.23
2017-08-21T14:42:13.926Z,2.40
2017-08-21T14:44:41.523Z,2.33
2017-08-21T14:47:09.848Z,1.97
2017-08-21T14:49:37.459Z,1.97
2017-08-21T14:52:05.816Z,2.77
2017-08-21T14:54:33.372Z,1.67
2017-08-21T14:57:00.980Z,2.00
2017-08-21T14:59:28.534Z,2.83
2017-08-21T15:01:56.099Z,2.20
2017-08-21T15:04:23.692Z,2.30
2017-08-21T15:06:51.300Z,2.33
2017-08-21T15:09:19.635Z,2.33
2017-08-21T15:11:47.197Z,2.43
2017-08-21T15:14:14.792Z,2.10
2017-08-21T15:16:43.119Z,2.30
2017-08-21T15:19:10.728Z,2.20
2017-08-21T15:21:39.076Z,1.83
2017-08-21T15:24:06.772Z,2.37
2017-08-21T15:26:34.344Z,2.27
2017-08-21T15:29:01.972Z,1.97
2017-08-21T15:31:30.356Z,2.33
2017-08-21T15:33:57.946Z,2.27
2017-08-21T15:36:25.577Z,2.50
2017-08-21T15:39:21.890Z,2.20
2017-08-21T15:41:51.240Z,2.00
2017-08-21T15:44:18.816Z,1.87
2017-08-21T15:46:46.379Z,2.30
2017-08-21T15:51:43.836Z,2.67
2017-08-21T15:54:11.437Z,2.50
2017-08-21T15:56:39.012Z,2.10
2017-08-21T15:59:06.571Z,2.60
2017-08-21T16:01:34.167Z,2.37
2017-08-21T16:04:01.739Z,2.17
2017-08-21T16:06:29.320Z,2.40
2017-08-21T16:08:56.924Z,2.43
2017-08-21T16:11:24.479Z,2.00
2017-08-21T16:13:52.076Z,2.10
2017-08-21T16:16:19.660Z,2.43
2017-08-21T16:18:47.215Z,2.70
2017-08-21T16:21:14.833Z,1.90
2017-08-21T16:23:42.435Z,2.23
2017-08-21T16:26:09.995Z,2.27
2017-08-21T16:28:37.566Z,1.87
2017-08-21T16:31:05.199Z,2.00
2017-08-21T16:33:32.782Z,2.03
2017-08-21T16:36:00.354Z,2.30
2017-08-21T16:38:27.963Z,2.00
2017-08-21T16:40:55.535Z,2.57
2017-08-21T16:43:23.111Z,2.80
2017-08-21T16:45:50.729Z,2.23
2017-08-21T16:48:18.316Z,2.90
2017-08-21T16:50:45.908Z,2.53
2017-08-21T16:53:13.495Z,3.10
2017-08-21T16:55:41.108Z,2.57
2017-08-21T16:58:08.663Z,2.33
2017-08-21T17:00:36.231Z,2.60
2017-08-21T17:03:03.836Z,2.83
2017-08-21T17:05:31.396Z,2.50
2017-08-21T17:07:59.008Z,1.93
2017-08-21T17:10:26.587Z,2.30
2017-08-21T17:12:55.730Z,2.10
2017-08-21T17:18:38.432Z,2.03
2017-08-21T17:21:06.223Z,2.20
2017-08-21T17:23:34.292Z,2.53
2017-08-21T17:26:01.875Z,1.90
2017-08-21T17:28:29.580Z,2.03
2017-08-21T17:30:57.137Z,2.20
2017-08-21T17:33:24.760Z,1.97
2017-08-21T17:35:52.328Z,2.47
2017-08-21T17:38:19.899Z,2.13
2017-08-21T17:40:47.551Z,2.20
2017-08-21T17:43:15.533Z,2.10
2017-08-21T17:45:43.479Z,2.47
2017-08-21T17:48:11.089Z,2.47
2017-08-21T17:50:38.668Z,2.00
2017-08-21T17:53:06.914Z,2.23
2017-08-21T17:55:35.186Z,2.00
2017-08-21T17:58:04.821Z,2.27
2017-08-21T18:00:32.533Z,2.30
2017-08-21T18:03:00.153Z,2.20
2017-08-21T18:05:27.882Z,2.33
2017-08-21T18:07:55.526Z,2.27
2017-08-21T18:10:23.121Z,2.10
2017-08-21T18:15:37.452Z,2.27
2017-08-21T18:18:05.080Z,2.20
2017-08-21T18:20:32.656Z,2.10
2017-08-21T18:23:00.244Z,2.90
2017-08-21T18:25:28.196Z,2.40
2017-08-21T18:27:55.771Z,2.43
2017-08-21T18:30:23.366Z,2.63
2017-08-21T18:32:50.971Z,2.40
2017-08-21T18:35:18.666Z,1.97
2017-08-21T18:37:46.356Z,2.60
2017-08-21T18:40:13.955Z,2.70
2017-08-21T18:42:41.552Z,2.40
2017-08-21T18:45:09.152Z,2.87
2017-08-21T18:47:36.730Z,2.90
2017-08-21T18:50:04.341Z,3.50
2017-08-21T18:52:31.943Z,3.40
2017-08-21T18:54:59.538Z,3.40
2017-08-21T18:57:27.148Z,3.30
2017-08-21T18:59:54.731Z,3.23
2017-08-21T19:02:22.396Z,3.50
2017-08-21T19:04:49.975Z,3.27
2017-08-21T19:07:17.591Z,3.13
2017-08-21T19:09:45.194Z,3.13
2017-08-21T19:12:12.779Z,3.70
2017-08-21T19:14:40.369Z,3.70
2017-08-21T19:17:07.952Z,3.50
2017-08-21T19:19:35.569Z,3.27
2017-08-21T19:22:03.188Z,4.00
2017-08-21T19:24:30.775Z,2.90
2017-08-21T19:26:58.358Z,3.20
2017-08-21T19:29:26.001Z,2.83
2017-08-21T19:31:53.570Z,3.30
2017-08-21T19:34:21.188Z,3.27
2017-08-21T19:36:48.773Z,3.10
2017-08-21T19:39:16.488Z,3.43
2017-08-21T19:41:44.068Z,2.67
2017-08-21T19:44:11.648Z,3.40
2017-08-21T19:46:39.240Z,3.63
2017-08-21T19:49:06.822Z,3.63
2017-08-21T19:51:34.394Z,4.20
2017-08-21T19:54:02.014Z,3.70
2017-08-21T19:56:29.579Z,3.40
2017-08-21T19:58:57.179Z,5.03
2017-08-21T20:01:24.796Z,3.50
2017-08-21T20:03:52.378Z,4.27
2017-08-21T20:06:20.007Z,4.30
2017-08-21T20:08:47.579Z,4.20
2017-08-21T20:11:15.148Z,4.23
2017-08-21T20:13:42.752Z,3.20
2017-08-21T20:16:10.329Z,4.37
2017-08-21T20:18:37.905Z,3.20
2017-08-21T20:21:05.507Z,4.63
2017-08-21T20:23:33.140Z,3.97
2017-08-21T20:26:00.753Z,3.60
2017-08-21T20:28:28.340Z,3.90
2017-08-21T20:30:55.907Z,3.90
2017-08-21T20:33:23.535Z,4.33
2017-08-21T20:35:51.106Z,4.10
2017-08-21T20:38:18.737Z,4.30
2017-08-21T20:40:46.316Z,3.73
2017-08-21T20:43:14.132Z,3.70
2017-08-21T20:45:41.794Z,4.07
2017-08-21T20:48:09.393Z,4.53
2017-08-21T20:50:36.994Z,4.07
2017-08-21T20:53:04.604Z,3.43
2017-08-21T20:55:32.178Z,4.10
2017-08-21T20:57:59.832Z,4.20
2017-08-21T21:00:27.404Z,4.27
2017-08-21T21:02:55.116Z,3.97
2017-08-21T21:05:22.732Z,4.80
2017-08-21T21:07:50.315Z,4.50
2017-08-21T21:10:17.927Z,4.57
2017-08-21T21:12:45.500Z,5.07
2017-08-21T21:15:13.067Z,4.93
2017-08-21T21:17:40.672Z,4.30
2017-08-21T21:20:08.253Z,5.33
2017-08-21T21:22:35.816Z,5.80
2017-08-21T21:25:03.412Z,6.30
2017-08-21T21:27:30.976Z,5.13
2017-08-21T21:29:58.595Z,5.50
2017-08-21T21:32:26.176Z,5.90
2017-08-21T21:34:53.753Z,5.73
2017-08-21T21:37:21.359Z,5.10
2017-08-21T21:39:48.961Z,5.87
2017-08-21T21:42:16.608Z,5.40
2017-08-21T21:44:44.176Z,5.53
2017-08-21T21:47:11.759Z,6.57
2017-08-21T21:49:39.360Z,5.07
2017-08-21T21:52:06.928Z,5.60
2017-08-21T21:54:34.543Z,5.40
2017-08-21T21:57:02.118Z,6.60
2017-08-21T21:59:29.686Z,5.77
2017-08-21T22:01:57.267Z,5.60
2017-08-21T22:04:24.834Z,6.67
2017-08-21T22:06:52.435Z,6.53
2017-08-21T22:09:20.011Z,5.73
2017-08-21T22:11:47.587Z,6.07
2017-08-21T22:14:15.183Z,5.77
2017-08-21T22:16:42.743Z,5.10
2017-08-21T22:19:10.347Z,5.30
2017-08-21T22:21:37.939Z,5.93
2017-08-21T22:24:05.529Z,5.60
2017-08-21T22:26:33.136Z,4.20
2017-08-21T22:29:00.715Z,4.77
2017-08-21T22:31:28.300Z,5.50
2017-08-21T22:33:55.888Z,5.47
2017-08-21T22:36:23.506Z,5.33
2017-08-21T22:38:51.083Z,5.13
2017-08-21T22:41:18.640Z,4.77
2017-08-21T22:43:46.261Z,5.17
2017-08-21T22:46:13.860Z,4.53
2017-08-21T22:48:41.442Z,5.20
2017-08-21T22:51:09.016Z,5.10
2017-08-21T22:53:36.635Z,5.83
2017-08-21T22:56:04.196Z,4.77
2017-08-21T22:58:31.759Z,4.50
2017-08-21T23:00:59.352Z,5.10
2017-08-21T23:03:26.920Z,5.80
2017-08-21T23:05:54.631Z,5.10
2017-08-21T23:08:22.198Z,5.87
2017-08-21T23:10:49.808Z,5.50
2017-08-21T23:13:17.367Z,4.67
2017-08-21T23:15:45.704Z,4.70
2017-08-21T23:18:13.427Z,4.87
2017-08-21T23:20:41.059Z,4.70
2017-08-21T23:23:08.669Z,5.80
2017-08-21T23:25:36.235Z,4.63
2017-08-21T23:28:03.834Z,4.40
2017-08-21T23:30:31.428Z,5.03
2017-08-21T23:32:58.996Z,5.10
2017-08-21T23:35:26.595Z,4.67
2017-08-21T23:37:54.151Z,5.17
2017-08-21T23:40:21.719Z,5.27
2017-08-21T23:42:49.303Z,4.60
2017-08-21T23:45:16.872Z,4.80
2017-08-21T23:47:44.475Z,5.00
2017-08-21T23:50:12.096Z,5.47
2017-08-21T23:52:39.779Z,4.70
2017-08-21T23:55:07.419Z,5.00
2017-08-21T23:57:34.983Z,4.80
